createdAt,value
2022-10-23T00:01:45.649Z,12.13
2022-10-23T00:04:25.490Z,12.15
2022-10-23T00:06:53.695Z,12.15
2022-10-23T00:09:24.341Z,12.15
2022-10-23T00:11:53.082Z,12.16
2022-10-23T00:14:23.782Z,12.17
2022-10-23T00:16:52.175Z,12.18
2022-10-23T00:19:20.145Z,12.15
2022-10-23T00:21:48.300Z,12.17
2022-10-23T00:24:16.320Z,12.17
2022-10-23T00:26:44.347Z,12.17
2022-10-23T00:29:12.614Z,12.17
2022-10-23T00:31:40.651Z,12.18
2022-10-23T00:34:09.151Z,12.17
2022-10-23T00:36:37.670Z,12.16
2022-10-23T00:39:06.845Z,12.15
2022-10-23T00:41:35.151Z,12.14
2022-10-23T00:44:05.808Z,12.13
2022-10-23T00:46:36.112Z,12.12
2022-10-23T00:49:06.016Z,12.12
2022-10-23T00:51:42.840Z,12.11
2022-10-23T00:54:29.412Z,12.11
2022-10-23T00:57:00.416Z,12.05
2022-10-23T00:59:30.144Z,12.12
2022-10-23T01:01:59.753Z,12.11
2022-10-23T01:04:31.075Z,12.12
2022-10-23T01:07:13.251Z,12.12
2022-10-23T01:10:13.635Z,12.12
2022-10-23T01:13:00.425Z,12.12
2022-10-23T01:15:45.883Z,12.12
2022-10-23T01:18:19.648Z,12.12
2022-10-23T01:21:28.988Z,12.12
2022-10-23T01:24:37.192Z,12.12
2022-10-23T01:27:26.768Z,12.12
2022-10-23T01:30:16.765Z,12.13
2022-10-23T01:32:48.172Z,12.14
2022-10-23T01:35:19.894Z,12.14
2022-10-23T01:38:06.370Z,12.14
2022-10-23T01:40:44.696Z,12.15
2022-10-23T01:43:18.204Z,12.15
2022-10-23T01:45:51.459Z,12.16
2022-10-23T01:48:28.047Z,12.15
2022-10-23T01:51:00.241Z,12.15
2022-10-23T01:53:32.212Z,12.15
2022-10-23T01:56:04.216Z,12.15
2022-10-23T01:58:34.795Z,12.16
2022-10-23T02:01:06.617Z,12.16
2022-10-23T02:03:37.659Z,12.16
2022-10-23T02:06:06.459Z,12.17
2022-10-23T02:08:34.958Z,12.17
2022-10-23T02:11:09.142Z,12.18
2022-10-23T02:13:44.174Z,12.18
2022-10-23T02:16:38.710Z,12.10
2022-10-23T02:19:14.200Z,12.12
2022-10-23T02:21:50.375Z,12.19
2022-10-23T02:24:25.602Z,12.19
2022-10-23T02:26:57.398Z,12.19
2022-10-23T02:29:33.987Z,12.19
2022-10-23T02:32:02.590Z,12.19
2022-10-23T02:34:30.658Z,12.18
2022-10-23T02:36:59.178Z,12.19
2022-10-23T02:39:28.306Z,12.19
2022-10-23T02:42:28.910Z,12.19
2022-10-23T02:45:07.389Z,12.20
2022-10-23T02:47:50.554Z,12.20
2022-10-23T02:50:28.000Z,12.21
2022-10-23T02:53:21.234Z,12.21
2022-10-23T02:55:55.318Z,12.21
2022-10-23T02:58:49.682Z,12.21
2022-10-23T03:01:22.728Z,12.22
2022-10-23T03:03:55.414Z,12.21
2022-10-23T03:06:24.471Z,12.22
2022-10-23T03:09:02.166Z,12.22
2022-10-23T03:11:30.279Z,12.22
2022-10-23T03:13:58.922Z,12.23
2022-10-23T03:16:27.837Z,12.23
2022-10-23T03:18:56.290Z,12.24
2022-10-23T03:21:24.517Z,12.25
2022-10-23T03:23:54.167Z,12.25
2022-10-23T03:26:29.098Z,12.24
2022-10-23T03:28:57.163Z,12.24
2022-10-23T03:31:25.862Z,12.23
2022-10-23T03:33:57.099Z,12.23
2022-10-23T03:36:25.233Z,12.23
2022-10-23T03:38:53.712Z,12.24
2022-10-23T03:41:22.174Z,12.24
2022-10-23T03:43:50.298Z,12.25
2022-10-23T03:46:18.670Z,12.24
2022-10-23T03:48:51.248Z,12.23
2022-10-23T03:51:19.303Z,12.22
2022-10-23T03:53:47.363Z,12.20
2022-10-23T03:56:17.263Z,12.18
2022-10-23T03:58:45.392Z,12.17
2022-10-23T04:01:14.401Z,12.14
2022-10-23T04:03:42.507Z,12.13
2022-10-23T04:06:10.602Z,12.13
2022-10-23T04:08:39.173Z,12.13
2022-10-23T04:11:13.954Z,12.13
2022-10-23T04:13:48.079Z,12.05
2022-10-23T04:16:16.534Z,12.12
2022-10-23T04:18:47.731Z,12.11
2022-10-23T04:21:16.533Z,12.10
2022-10-23T04:23:44.990Z,12.10
2022-10-23T04:26:15.642Z,12.10
2022-10-23T04:28:43.737Z,12.09
2022-10-23T04:31:12.208Z,12.08
2022-10-23T04:33:42.717Z,12.06
2022-10-23T04:36:10.991Z,12.04
2022-10-23T04:38:41.230Z,12.04
2022-10-23T04:41:09.894Z,12.03
2022-10-23T04:43:37.923Z,12.00
2022-10-23T04:46:06.537Z,11.98
2022-10-23T04:48:35.203Z,11.96
2022-10-23T04:51:21.419Z,11.93
2022-10-23T04:53:56.125Z,11.91
2022-10-23T04:56:38.485Z,11.89
2022-10-23T04:59:13.454Z,11.87
2022-10-23T05:01:42.261Z,11.87
2022-10-23T05:04:11.041Z,11.87
2022-10-23T05:06:59.073Z,11.87
2022-10-23T05:09:45.512Z,11.88
2022-10-23T05:12:25.562Z,11.88
2022-10-23T05:14:54.498Z,11.88
2022-10-23T05:17:32.402Z,11.87
2022-10-23T05:20:03.341Z,11.87
2022-10-23T05:22:35.505Z,11.87
2022-10-23T05:25:05.909Z,11.88
2022-10-23T05:27:34.845Z,11.89
2022-10-23T05:30:04.977Z,11.90
2022-10-23T05:32:37.406Z,11.90
2022-10-23T05:35:17.332Z,11.91
2022-10-23T05:37:50.301Z,11.92
2022-10-23T05:40:22.114Z,11.93
2022-10-23T05:42:53.333Z,11.94
2022-10-23T05:45:29.409Z,11.95
2022-10-23T05:48:33.689Z,11.95
2022-10-23T05:51:23.344Z,11.95
2022-10-23T05:53:59.897Z,11.95
2022-10-23T05:56:38.515Z,11.96
2022-10-23T05:59:11.758Z,11.96
2022-10-23T06:01:50.483Z,11.96
2022-10-23T06:04:36.786Z,11.97
2022-10-23T06:07:35.751Z,11.96
2022-10-23T06:10:06.521Z,11.98
2022-10-23T06:12:37.128Z,12.01
2022-10-23T06:15:05.965Z,12.02
2022-10-23T06:18:18.305Z,12.02
2022-10-23T06:21:02.226Z,11.95
2022-10-23T06:23:32.548Z,12.06
2022-10-23T06:26:23.402Z,12.07
2022-10-23T06:29:11.922Z,12.06
2022-10-23T06:31:42.990Z,12.04
2022-10-23T06:34:12.362Z,12.04
2022-10-23T06:36:40.734Z,12.05
2022-10-23T06:39:26.232Z,12.06
2022-10-23T06:42:11.279Z,12.08
2022-10-23T06:44:57.991Z,12.11
2022-10-23T06:47:44.929Z,12.14
2022-10-23T06:50:16.078Z,12.18
2022-10-23T06:52:47.613Z,12.23
2022-10-23T06:55:19.304Z,12.28
2022-10-23T06:57:47.851Z,12.32
2022-10-23T07:00:16.166Z,12.34
2022-10-23T07:02:51.007Z,12.36
2022-10-23T07:05:20.538Z,12.38
2022-10-23T07:07:49.006Z,12.41
2022-10-23T07:10:22.430Z,12.27
2022-10-23T07:13:00.926Z,12.46
2022-10-23T07:15:47.210Z,12.46
2022-10-23T07:18:17.318Z,12.47
2022-10-23T07:21:14.464Z,12.48
2022-10-23T07:23:43.362Z,12.48
2022-10-23T07:26:15.589Z,12.50
2022-10-23T07:28:46.474Z,12.50
2022-10-23T07:31:15.960Z,12.50
2022-10-23T07:34:05.391Z,12.50
2022-10-23T07:36:33.630Z,12.52
2022-10-23T07:39:01.833Z,12.54
2022-10-23T07:41:30.286Z,12.56
2022-10-23T07:43:58.740Z,12.57
2022-10-23T07:46:27.083Z,12.58
2022-10-23T07:48:55.314Z,12.59
2022-10-23T07:51:23.553Z,12.60
2022-10-23T07:53:56.865Z,12.61
2022-10-23T07:57:03.461Z,12.61
2022-10-23T07:59:45.714Z,12.53
2022-10-23T08:02:15.775Z,12.60
2022-10-23T08:04:44.794Z,12.58
2022-10-23T08:07:23.777Z,12.52
2022-10-23T08:09:53.656Z,12.56
2022-10-23T08:12:22.025Z,12.57
2022-10-23T08:14:50.336Z,12.59
2022-10-23T08:17:25.074Z,12.62
2022-10-23T08:20:13.865Z,12.53
2022-10-23T08:22:43.793Z,12.66
2022-10-23T08:25:12.388Z,12.70
2022-10-23T08:27:41.673Z,12.73
2022-10-23T08:30:10.865Z,12.74
2022-10-23T08:32:39.200Z,12.73
2022-10-23T08:35:08.184Z,12.76
2022-10-23T08:37:37.800Z,12.76
2022-10-23T08:40:07.384Z,12.76
2022-10-23T08:43:05.500Z,12.78
2022-10-23T08:45:40.752Z,12.77
2022-10-23T08:48:30.464Z,12.77
2022-10-23T08:51:39.808Z,12.76
2022-10-23T08:54:16.067Z,12.56
2022-10-23T08:57:10.524Z,12.71
2022-10-23T08:59:50.268Z,12.80
2022-10-23T09:02:23.365Z,12.80
2022-10-23T09:04:53.925Z,12.79
2022-10-23T09:07:37.401Z,12.79
2022-10-23T09:10:17.469Z,12.80
2022-10-23T09:12:46.210Z,12.79
2022-10-23T09:15:35.285Z,12.79
2022-10-23T09:18:14.133Z,12.80
2022-10-23T09:20:45.777Z,12.79
2022-10-23T09:23:23.310Z,12.66
2022-10-23T09:25:57.148Z,12.80
2022-10-23T09:28:31.240Z,12.79
2022-10-23T09:31:19.314Z,12.79
2022-10-23T09:33:56.240Z,12.80
2022-10-23T09:36:26.004Z,12.81
2022-10-23T09:38:56.356Z,12.80
2022-10-23T09:41:43.162Z,12.82
2022-10-23T09:44:17.076Z,12.83
2022-10-23T09:46:55.584Z,12.84
2022-10-23T09:49:32.534Z,12.84
2022-10-23T09:52:10.179Z,12.84
2022-10-23T09:54:47.087Z,12.84
2022-10-23T09:57:51.024Z,12.84
2022-10-23T10:00:25.646Z,12.86
2022-10-23T10:03:02.851Z,12.87
2022-10-23T10:05:42.492Z,12.89
2022-10-23T10:08:38.080Z,12.93
2022-10-23T10:11:23.133Z,12.96
2022-10-23T10:13:54.300Z,12.91
2022-10-23T10:19:15.490Z,13.03
2022-10-23T10:22:12.204Z,13.05
2022-10-23T10:24:49.544Z,13.06
2022-10-23T10:27:38.576Z,13.03
2022-10-23T10:30:24.044Z,13.11
2022-10-23T10:33:02.404Z,13.13
2022-10-23T10:35:33.393Z,13.15
2022-10-23T10:38:21.313Z,13.17
2022-10-23T10:41:14.621Z,13.18
2022-10-23T10:43:58.179Z,13.18
2022-10-23T10:46:38.463Z,13.18
2022-10-23T10:49:13.069Z,13.19
2022-10-23T10:52:16.573Z,13.18
2022-10-23T10:54:52.800Z,13.20
2022-10-23T10:57:35.185Z,13.21
2022-10-23T11:00:15.755Z,13.22
2022-10-23T11:02:49.060Z,13.25
2022-10-23T11:05:17.472Z,13.26
2022-10-23T11:08:14.695Z,13.25
2022-10-23T11:10:48.483Z,13.29
2022-10-23T11:13:35.792Z,13.31
2022-10-23T11:16:09.141Z,13.32
2022-10-23T11:18:40.904Z,13.35
2022-10-23T11:21:38.204Z,13.38
2022-10-23T11:24:36.580Z,13.42
2022-10-23T11:27:26.465Z,13.48
2022-10-23T11:30:35.266Z,13.53
2022-10-23T11:33:28.664Z,13.56
2022-10-23T11:36:16.799Z,13.58
2022-10-23T11:38:50.994Z,13.60
2022-10-23T11:41:27.438Z,13.62
2022-10-23T11:44:03.960Z,13.66
2022-10-23T11:46:39.200Z,13.70
2022-10-23T11:49:21.170Z,13.74
2022-10-23T11:52:00.737Z,13.78
2022-10-23T11:54:29.832Z,13.80
2022-10-23T11:57:10.339Z,13.84
2022-10-23T11:59:45.417Z,13.89
2022-10-23T12:02:27.765Z,13.95
2022-10-23T12:04:56.576Z,14.03
2022-10-23T12:07:32.672Z,14.01
2022-10-23T12:10:00.905Z,14.13
2022-10-23T12:12:43.510Z,14.16
2022-10-23T12:15:11.749Z,14.19
2022-10-23T12:17:41.712Z,14.23
2022-10-23T12:20:13.448Z,14.29
2022-10-23T12:22:59.577Z,14.32
2022-10-23T12:25:46.401Z,14.32
2022-10-23T12:28:28.637Z,14.22
2022-10-23T12:31:09.494Z,14.21
2022-10-23T12:33:52.981Z,13.94
2022-10-23T12:36:48.872Z,13.93
2022-10-23T12:39:29.565Z,13.85
2022-10-23T12:42:00.682Z,13.82
2022-10-23T12:44:31.477Z,13.81
2022-10-23T12:47:02.700Z,13.62
2022-10-23T12:49:33.840Z,13.82
2022-10-23T12:52:03.601Z,13.83
2022-10-23T12:54:34.129Z,13.83
2022-10-23T12:57:02.538Z,13.82
2022-10-23T12:59:38.880Z,13.85
2022-10-23T13:02:28.490Z,13.88
2022-10-23T13:05:01.241Z,13.89
2022-10-23T13:07:34.633Z,13.93
2022-10-23T13:10:05.834Z,13.99
2022-10-23T13:12:40.947Z,14.09
2022-10-23T13:15:11.014Z,14.30
2022-10-23T13:17:44.725Z,14.53
2022-10-23T13:20:26.827Z,14.80
2022-10-23T13:23:10.357Z,15.02
2022-10-23T13:25:39.905Z,15.08
2022-10-23T13:28:08.324Z,15.15
2022-10-23T13:30:42.289Z,15.22
2022-10-23T13:33:24.245Z,16.05
2022-10-23T13:36:00.541Z,16.44
2022-10-23T13:38:37.011Z,16.26
2022-10-23T13:41:13.738Z,16.07
2022-10-23T13:43:43.201Z,15.87
2022-10-23T13:46:22.514Z,15.82
2022-10-23T13:48:50.773Z,15.76
2022-10-23T13:51:28.189Z,15.73
2022-10-23T13:53:57.765Z,15.96
2022-10-23T13:56:27.809Z,15.96
2022-10-23T13:58:56.233Z,15.91
2022-10-23T14:01:33.991Z,15.82
2022-10-23T14:04:04.577Z,16.38
2022-10-23T14:06:34.097Z,16.43
2022-10-23T14:09:02.541Z,16.24
2022-10-23T14:11:32.454Z,16.15
2022-10-23T14:14:00.911Z,16.01
2022-10-23T14:16:29.598Z,15.88
2022-10-23T14:18:57.925Z,15.78
2022-10-23T14:21:26.268Z,15.72
2022-10-23T14:23:54.778Z,15.67
2022-10-23T14:26:26.069Z,15.66
2022-10-23T14:28:56.891Z,15.61
2022-10-23T14:31:27.328Z,15.51
2022-10-23T14:33:58.925Z,15.45
2022-10-23T14:36:34.381Z,15.55
2022-10-23T14:39:11.913Z,16.00
2022-10-23T14:41:40.833Z,15.90
2022-10-23T14:44:09.044Z,15.76
2022-10-23T14:46:38.530Z,15.62
2022-10-23T14:49:07.227Z,15.50
2022-10-23T14:51:36.037Z,15.41
2022-10-23T14:54:06.307Z,15.31
2022-10-23T14:56:37.750Z,15.19
2022-10-23T14:59:06.742Z,15.11
2022-10-23T15:01:43.523Z,15.04
2022-10-23T15:04:16.210Z,14.88
2022-10-23T15:06:46.472Z,14.91
2022-10-23T15:09:15.848Z,14.86
2022-10-23T15:11:44.131Z,14.82
2022-10-23T15:14:13.064Z,14.78
2022-10-23T15:16:42.306Z,14.74
2022-10-23T15:19:15.408Z,14.70
2022-10-23T15:21:48.141Z,14.48
2022-10-23T15:24:17.535Z,14.59
2022-10-23T15:26:45.816Z,14.55
2022-10-23T15:29:15.175Z,14.50
2022-10-23T15:31:47.192Z,14.46
2022-10-23T15:34:21.647Z,14.43
2022-10-23T15:36:51.253Z,14.40
2022-10-23T15:39:26.356Z,14.36
2022-10-23T15:41:57.245Z,14.32
2022-10-23T15:44:28.357Z,14.28
2022-10-23T15:46:57.556Z,14.23
2022-10-23T15:49:27.609Z,14.17
2022-10-23T15:51:56.965Z,14.12
2022-10-23T15:55:03.077Z,14.06
2022-10-23T15:57:31.468Z,14.01
2022-10-23T15:59:59.782Z,13.97
2022-10-23T16:02:28.201Z,13.93
2022-10-23T16:04:56.672Z,13.88
2022-10-23T16:07:25.288Z,13.83
2022-10-23T16:09:54.204Z,13.77
2022-10-23T16:12:22.595Z,13.72
2022-10-23T16:14:51.986Z,13.65
2022-10-23T16:17:20.303Z,13.55
2022-10-23T16:19:48.551Z,13.52
2022-10-23T16:22:17.637Z,13.44
2022-10-23T16:24:45.851Z,13.37
2022-10-23T16:27:14.178Z,13.31
2022-10-23T16:29:42.453Z,13.25
2022-10-23T16:32:10.938Z,13.17
2022-10-23T16:34:39.266Z,13.07
2022-10-23T16:37:07.526Z,12.99
2022-10-23T16:39:59.977Z,12.88
2022-10-23T16:42:34.428Z,12.77
2022-10-23T16:45:22.309Z,12.68
2022-10-23T16:47:50.552Z,12.57
2022-10-23T16:50:18.785Z,12.48
2022-10-23T16:52:48.351Z,12.39
2022-10-23T16:55:18.356Z,12.25
2022-10-23T16:57:46.800Z,12.25
2022-10-23T17:00:15.988Z,12.20
2022-10-23T17:02:44.512Z,12.14
2022-10-23T17:05:13.201Z,11.99
2022-10-23T17:07:41.699Z,12.06
2022-10-23T17:10:10.272Z,11.99
2022-10-23T17:12:39.037Z,11.94
2022-10-23T17:15:08.248Z,11.90
2022-10-23T17:17:36.645Z,11.86
2022-10-23T17:20:05.193Z,11.83
2022-10-23T17:22:35.714Z,11.81
2022-10-23T17:25:04.265Z,11.78
2022-10-23T17:27:32.710Z,11.77
2022-10-23T17:30:01.001Z,11.75
2022-10-23T17:32:29.393Z,11.75
2022-10-23T17:34:57.704Z,11.74
2022-10-23T17:37:26.540Z,11.72
2022-10-23T17:39:55.807Z,11.71
2022-10-23T17:42:25.300Z,11.71
2022-10-23T17:44:54.284Z,11.71
2022-10-23T17:47:23.020Z,11.69
2022-10-23T17:49:51.328Z,11.65
2022-10-23T17:52:20.068Z,11.64
2022-10-23T17:54:52.572Z,11.62
2022-10-23T17:57:20.826Z,11.59
2022-10-23T17:59:49.061Z,11.56
2022-10-23T18:02:17.408Z,11.55
2022-10-23T18:04:45.630Z,11.52
2022-10-23T18:07:15.026Z,11.47
2022-10-23T18:09:45.639Z,11.41
2022-10-23T18:12:14.457Z,11.38
2022-10-23T18:14:43.293Z,11.41
2022-10-23T18:17:11.804Z,11.43
2022-10-23T18:19:40.345Z,11.45
2022-10-23T18:22:08.604Z,11.47
2022-10-23T18:24:38.124Z,11.48
2022-10-23T18:27:07.118Z,11.51
2022-10-23T18:29:35.341Z,11.54
2022-10-23T18:32:03.833Z,11.55
2022-10-23T18:34:32.160Z,11.54
2022-10-23T18:37:01.092Z,11.53
2022-10-23T18:39:29.322Z,11.54
2022-10-23T18:41:58.713Z,11.54
2022-10-23T18:44:29.354Z,11.52
2022-10-23T18:46:59.001Z,11.55
2022-10-23T18:49:27.416Z,11.55
2022-10-23T18:51:55.797Z,11.54
2022-10-23T18:54:24.557Z,11.52
2022-10-23T18:56:52.743Z,11.50
2022-10-23T18:59:21.885Z,11.43
2022-10-23T19:01:50.521Z,11.49
2022-10-23T19:04:19.428Z,11.50
2022-10-23T19:06:50.259Z,11.50
2022-10-23T19:09:19.057Z,11.50
2022-10-23T19:11:47.671Z,11.50
2022-10-23T19:14:16.064Z,11.50
2022-10-23T19:17:04.238Z,11.48
2022-10-23T19:19:40.118Z,11.47
2022-10-23T19:22:10.005Z,11.44
2022-10-23T19:24:49.043Z,11.42
2022-10-23T19:27:19.449Z,11.38
2022-10-23T19:29:50.305Z,11.36
2022-10-23T19:32:18.513Z,11.31
2022-10-23T19:34:46.830Z,11.27
2022-10-23T19:37:16.102Z,11.24
2022-10-23T19:39:44.353Z,11.21
2022-10-23T19:42:13.189Z,11.18
2022-10-23T19:44:41.281Z,11.16
2022-10-23T19:47:09.569Z,11.13
2022-10-23T19:49:38.468Z,11.10
2022-10-23T19:52:06.846Z,11.05
2022-10-23T19:54:34.998Z,11.03
2022-10-23T19:57:03.413Z,11.00
2022-10-23T19:59:31.481Z,10.99
2022-10-23T20:01:59.831Z,10.97
2022-10-23T20:04:29.105Z,10.95
2022-10-23T20:06:57.484Z,10.93
2022-10-23T20:09:25.765Z,10.91
2022-10-23T20:11:54.002Z,10.81
2022-10-23T20:14:22.178Z,10.89
2022-10-23T20:16:54.953Z,10.88
2022-10-23T20:19:24.130Z,10.81
2022-10-23T20:21:52.285Z,10.83
2022-10-23T20:24:21.573Z,10.86
2022-10-23T20:26:54.824Z,10.86
2022-10-23T20:29:24.986Z,10.84
2022-10-23T20:31:53.214Z,10.82
2022-10-23T20:34:21.487Z,10.80
2022-10-23T20:36:50.012Z,10.80
2022-10-23T20:39:27.133Z,10.78
2022-10-23T20:41:56.481Z,10.77
2022-10-23T20:44:24.932Z,10.78
2022-10-23T20:46:53.556Z,10.77
2022-10-23T20:49:22.744Z,10.76
2022-10-23T20:51:56.168Z,10.74
2022-10-23T20:54:28.999Z,10.72
2022-10-23T20:56:57.272Z,10.61
2022-10-23T20:59:25.559Z,10.68
2022-10-23T21:01:55.594Z,10.66
2022-10-23T21:04:28.078Z,10.64
2022-10-23T21:07:09.599Z,10.63
2022-10-23T21:09:40.215Z,10.62
2022-10-23T21:12:09.092Z,10.62
2022-10-23T21:14:37.415Z,10.61
2022-10-23T21:17:08.540Z,10.57
2022-10-23T21:19:37.001Z,10.60
2022-10-23T21:22:05.407Z,10.54
2022-10-23T21:24:33.851Z,10.60
2022-10-23T21:27:02.357Z,10.61
2022-10-23T21:29:30.939Z,10.61
2022-10-23T21:32:01.651Z,10.61
2022-10-23T21:34:30.475Z,10.61
2022-10-23T21:37:14.836Z,10.61
2022-10-23T21:39:44.823Z,10.53
2022-10-23T21:42:14.582Z,10.61
2022-10-23T21:44:42.749Z,10.62
2022-10-23T21:47:11.466Z,10.57
2022-10-23T21:49:39.703Z,10.63
2022-10-23T21:52:08.483Z,10.63
2022-10-23T21:54:37.338Z,10.62
2022-10-23T21:57:12.378Z,10.61
2022-10-23T21:59:41.160Z,10.60
2022-10-23T22:02:09.627Z,10.60
2022-10-23T22:04:39.091Z,10.59
2022-10-23T22:07:07.901Z,10.60
2022-10-23T22:09:36.208Z,10.60
2022-10-23T22:12:04.426Z,10.60
2022-10-23T22:14:32.705Z,10.60
2022-10-23T22:17:00.826Z,10.61
2022-10-23T22:19:28.937Z,10.61
2022-10-23T22:21:57.140Z,10.62
2022-10-23T22:24:25.273Z,10.63
2022-10-23T22:26:56.091Z,10.63
2022-10-23T22:29:27.452Z,10.65
2022-10-23T22:31:56.818Z,10.64
2022-10-23T22:34:48.265Z,10.65
2022-10-23T22:37:16.283Z,10.66
2022-10-23T22:39:44.468Z,10.67
2022-10-23T22:42:12.814Z,10.68
2022-10-23T22:44:41.223Z,10.69
2022-10-23T22:47:09.338Z,10.70
2022-10-23T22:49:38.492Z,10.71
2022-10-23T22:52:06.795Z,10.71
2022-10-23T22:54:34.959Z,10.71
2022-10-23T22:57:03.110Z,10.71
2022-10-23T22:59:31.274Z,10.70
2022-10-23T23:01:59.394Z,10.70
2022-10-23T23:04:43.308Z,10.70
2022-10-23T23:07:13.039Z,10.69
2022-10-23T23:09:44.531Z,10.68
2022-10-23T23:12:14.380Z,10.69
2022-10-23T23:14:43.041Z,10.70
2022-10-23T23:17:12.034Z,10.70
2022-10-23T23:19:40.192Z,10.71
2022-10-23T23:22:08.524Z,10.71
2022-10-23T23:24:37.053Z,10.72
2022-10-23T23:27:05.234Z,10.73
2022-10-23T23:29:33.535Z,10.64
2022-10-23T23:32:01.715Z,10.73
2022-10-23T23:34:30.003Z,10.72
2022-10-23T23:36:58.485Z,10.71
2022-10-23T23:39:28.607Z,10.71
2022-10-23T23:41:56.881Z,10.69
2022-10-23T23:44:25.024Z,10.68
2022-10-23T23:46:53.200Z,10.67
2022-10-23T23:49:21.724Z,10.66
2022-10-23T23:51:49.892Z,10.64
2022-10-23T23:54:18.355Z,10.63
2022-10-23T23:56:46.440Z,10.61
2022-10-23T23:59:15.131Z,10.60
